sensor_id;sensor_type;location;lat;lon;timestamp;pressure;altitude;pressure_sealevel;temperature;humidity
62103;BME280;48077;48.104;11.702;2024-01-30T00:01:30;96877.34;;;-2.84;100.00
62103;BME280;48077;48.104;11.702;2024-01-30T00:03:58;96881.97;;;-2.88;100.00
62103;BME280;48077;48.104;11.702;2024-01-30T00:06:25;96872.22;;;-2.86;100.00
62103;BME280;48077;48.104;11.702;2024-01-30T00:08:54;96863.56;;;-2.97;100.00
62103;BME280;48077;48.104;11.702;2024-01-30T00:11:22;96873.53;;;-2.91;100.00
62103;BME280;48077;48.104;11.702;2024-01-30T00:13:52;96873.75;;;-2.94;100.00
62103;BME280;48077;48.104;11.702;2024-01-30T00:16:22;96875.44;;;-2.93;100.00
62103;BME280;48077;48.104;11.702;2024-01-30T00:18:50;96880.19;;;-2.87;100.00
62103;BME280;48077;48.104;11.702;2024-01-30T00:21:19;96879.34;;;-2.88;100.00
62103;BME280;48077;48.104;11.702;2024-01-30T00:23:46;96876.88;;;-2.89;100.00
62103;BME280;48077;48.104;11.702;2024-01-30T00:26:14;96882.91;;;-2.89;100.00
62103;BME280;48077;48.104;11.702;2024-01-30T00:28:42;96876.34;;;-3.06;100.00
62103;BME280;48077;48.104;11.702;2024-01-30T00:31:10;96878.16;;;-2.95;100.00
62103;BME280;48077;48.104;11.702;2024-01-30T00:33:40;96872.38;;;-2.87;100.00
62103;BME280;48077;48.104;11.702;2024-01-30T00:36:09;96878.06;;;-2.82;100.00
62103;BME280;48077;48.104;11.702;2024-01-30T00:38:37;96879.69;;;-2.92;100.00
62103;BME280;48077;48.104;11.702;2024-01-30T00:41:05;96865.66;;;-3.02;100.00
62103;BME280;48077;48.104;11.702;2024-01-30T00:43:33;96875.31;;;-2.92;100.00
62103;BME280;48077;48.104;11.702;2024-01-30T00:46:00;96876.88;;;-2.89;100.00
62103;BME280;48077;48.104;11.702;2024-01-30T00:48:28;96876.13;;;-3.02;100.00
62103;BME280;48077;48.104;11.702;2024-01-30T00:50:57;96868.41;;;-3.04;100.00
62103;BME280;48077;48.104;11.702;2024-01-30T00:53:25;96869.25;;;-3.03;100.00
62103;BME280;48077;48.104;11.702;2024-01-30T00:55:53;96868.75;;;-3.09;100.00
62103;BME280;48077;48.104;11.702;2024-01-30T00:58:21;96869.44;;;-3.18;100.00
62103;BME280;48077;48.104;11.702;2024-01-30T01:00:49;96862.16;;;-3.26;100.00
62103;BME280;48077;48.104;11.702;2024-01-30T01:07:44;96856.31;;;-3.40;100.00
62103;BME280;48077;48.104;11.702;2024-01-30T01:10:14;96871.53;;;-3.23;100.00
62103;BME280;48077;48.104;11.702;2024-01-30T01:12:42;96881.88;;;-3.21;100.00
62103;BME280;48077;48.104;11.702;2024-01-30T01:15:10;96865.94;;;-3.30;100.00
62103;BME280;48077;48.104;11.702;2024-01-30T01:17:38;96869.25;;;-3.39;100.00
62103;BME280;48077;48.104;11.702;2024-01-30T01:20:07;96881.50;;;-3.28;100.00
62103;BME280;48077;48.104;11.702;2024-01-30T01:22:37;96876.25;;;-3.39;100.00
62103;BME280;48077;48.104;11.702;2024-01-30T01:25:08;96872.91;;;-3.41;100.00
62103;BME280;48077;48.104;11.702;2024-01-30T01:27:37;96882.50;;;-3.42;100.00
62103;BME280;48077;48.104;11.702;2024-01-30T01:30:09;96881.84;;;-3.33;100.00
62103;BME280;48077;48.104;11.702;2024-01-30T01:32:38;96875.28;;;-3.38;100.00
62103;BME280;48077;48.104;11.702;2024-01-30T01:35:11;96878.72;;;-3.38;100.00
62103;BME280;48077;48.104;11.702;2024-01-30T01:37:39;96857.19;;;-3.53;100.00
62103;BME280;48077;48.104;11.702;2024-01-30T01:40:09;96869.31;;;-3.52;100.00
62103;BME280;48077;48.104;11.702;2024-01-30T01:42:38;96864.75;;;-3.61;100.00
62103;BME280;48077;48.104;11.702;2024-01-30T01:45:06;96863.09;;;-3.62;100.00
62103;BME280;48077;48.104;11.702;2024-01-30T01:47:34;96865.25;;;-3.56;100.00
62103;BME280;48077;48.104;11.702;2024-01-30T01:50:02;96865.03;;;-3.53;100.00
62103;BME280;48077;48.104;11.702;2024-01-30T01:52:31;96871.06;;;-3.52;100.00
62103;BME280;48077;48.104;11.702;2024-01-30T01:54:59;96866.47;;;-3.49;100.00
62103;BME280;48077;48.104;11.702;2024-01-30T01:57:28;96870.41;;;-3.43;100.00
62103;BME280;48077;48.104;11.702;2024-01-30T01:59:56;96873.34;;;-3.48;100.00
62103;BME280;48077;48.104;11.702;2024-01-30T02:02:24;96867.53;;;-3.51;100.00
62103;BME280;48077;48.104;11.702;2024-01-30T02:04:53;96867.78;;;-3.43;100.00
62103;BME280;48077;48.104;11.702;2024-01-30T02:07:21;96858.44;;;-3.46;100.00
62103;BME280;48077;48.104;11.702;2024-01-30T02:09:49;96863.13;;;-3.51;100.00
62103;BME280;48077;48.104;11.702;2024-01-30T02:12:17;96859.88;;;-3.66;100.00
62103;BME280;48077;48.104;11.702;2024-01-30T02:14:46;96876.34;;;-3.65;100.00
62103;BME280;48077;48.104;11.702;2024-01-30T02:17:15;96865.09;;;-3.66;100.00
62103;BME280;48077;48.104;11.702;2024-01-30T02:19:43;96877.91;;;-3.62;100.00
62103;BME280;48077;48.104;11.702;2024-01-30T02:22:13;96884.06;;;-3.63;100.00
62103;BME280;48077;48.104;11.702;2024-01-30T02:24:41;96875.31;;;-3.62;100.00
62103;BME280;48077;48.104;11.702;2024-01-30T02:27:08;96864.59;;;-3.71;100.00
62103;BME280;48077;48.104;11.702;2024-01-30T02:29:36;96880.34;;;-3.72;100.00
62103;BME280;48077;48.104;11.702;2024-01-30T02:32:05;96875.22;;;-3.74;100.00
62103;BME280;48077;48.104;11.702;2024-01-30T02:34:34;96877.13;;;-3.76;100.00
62103;BME280;48077;48.104;11.702;2024-01-30T02:37:01;96870.25;;;-3.77;100.00
62103;BME280;48077;48.104;11.702;2024-01-30T02:39:31;96870.25;;;-3.77;100.00
62103;BME280;48077;48.104;11.702;2024-01-30T02:41:58;96867.66;;;-3.77;100.00
62103;BME280;48077;48.104;11.702;2024-01-30T02:44:26;96871.06;;;-3.76;100.00
62103;BME280;48077;48.104;11.702;2024-01-30T02:46:54;96866.31;;;-3.82;100.00
62103;BME280;48077;48.104;11.702;2024-01-30T02:49:22;96876.19;;;-3.88;100.00
62103;BME280;48077;48.104;11.702;2024-01-30T02:51:50;96870.16;;;-3.88;100.00
62103;BME280;48077;48.104;11.702;2024-01-30T02:54:18;96865.34;;;-3.81;100.00
62103;BME280;48077;48.104;11.702;2024-01-30T02:56:47;96868.66;;;-3.79;100.00
62103;BME280;48077;48.104;11.702;2024-01-30T02:59:15;96861.56;;;-3.77;100.00
62103;BME280;48077;48.104;11.702;2024-01-30T03:01:43;96858.47;;;-3.82;100.00
62103;BME280;48077;48.104;11.702;2024-01-30T03:04:12;96852.88;;;-3.89;100.00
62103;BME280;48077;48.104;11.702;2024-01-30T03:06:44;96854.13;;;-3.95;100.00
62103;BME280;48077;48.104;11.702;2024-01-30T03:09:16;96852.69;;;-3.99;100.00
62103;BME280;48077;48.104;11.702;2024-01-30T03:11:44;96849.25;;;-3.99;100.00
62103;BME280;48077;48.104;11.702;2024-01-30T03:14:13;96840.31;;;-4.08;100.00
62103;BME280;48077;48.104;11.702;2024-01-30T03:16:40;96854.47;;;-3.99;100.00
62103;BME280;48077;48.104;11.702;2024-01-30T03:19:08;96852.06;;;-4.02;100.00
62103;BME280;48077;48.104;11.702;2024-01-30T03:21:36;96852.06;;;-4.02;100.00
62103;BME280;48077;48.104;11.702;2024-01-30T03:24:05;96837.44;;;-4.16;100.00
62103;BME280;48077;48.104;11.702;2024-01-30T03:26:32;96853.84;;;-4.03;100.00
62103;BME280;48077;48.104;11.702;2024-01-30T03:29:00;96844.97;;;-4.00;100.00
62103;BME280;48077;48.104;11.702;2024-01-30T03:31:29;96853.41;;;-3.97;100.00
62103;BME280;48077;48.104;11.702;2024-01-30T03:33:57;96849.47;;;-4.02;100.00
62103;BME280;48077;48.104;11.702;2024-01-30T03:36:25;96841.06;;;-4.06;100.00
62103;BME280;48077;48.104;11.702;2024-01-30T03:38:53;96841.06;;;-4.06;100.00
62103;BME280;48077;48.104;11.702;2024-01-30T03:41:20;96817.94;;;-4.23;100.00
62103;BME280;48077;48.104;11.702;2024-01-30T03:43:48;96841.97;;;-4.07;100.00
62103;BME280;48077;48.104;11.702;2024-01-30T03:46:16;96843.84;;;-4.09;100.00
62103;BME280;48077;48.104;11.702;2024-01-30T03:48:45;96844.09;;;-4.12;100.00
62103;BME280;48077;48.104;11.702;2024-01-30T03:51:13;96820.13;;;-4.17;100.00
62103;BME280;48077;48.104;11.702;2024-01-30T03:53:43;96847.81;;;-4.03;100.00
62103;BME280;48077;48.104;11.702;2024-01-30T03:56:12;96847.09;;;-4.05;100.00
62103;BME280;48077;48.104;11.702;2024-01-30T03:58:40;96823.78;;;-4.20;100.00
62103;BME280;48077;48.104;11.702;2024-01-30T04:01:13;96841.69;;;-4.15;100.00
62103;BME280;48077;48.104;11.702;2024-01-30T04:03:41;96845.13;;;-4.15;100.00
62103;BME280;48077;48.104;11.702;2024-01-30T04:06:12;96839.47;;;-4.09;100.00
62103;BME280;48077;48.104;11.702;2024-01-30T04:08:40;96844.69;;;-4.09;100.00
62103;BME280;48077;48.104;11.702;2024-01-30T04:11:07;96841.06;;;-4.06;100.00
62103;BME280;48077;48.104;11.702;2024-01-30T04:13:35;96841.25;;;-4.09;100.00
62103;BME280;48077;48.104;11.702;2024-01-30T04:16:04;96841.59;;;-4.14;100.00
62103;BME280;48077;48.104;11.702;2024-01-30T04:18:32;96837.31;;;-4.15;100.00
62103;BME280;48077;48.104;11.702;2024-01-30T04:21:00;96824.31;;;-4.28;100.00
62103;BME280;48077;48.104;11.702;2024-01-30T04:23:29;96838.59;;;-4.20;100.00
62103;BME280;48077;48.104;11.702;2024-01-30T04:25:57;96840.13;;;-4.18;100.00
62103;BME280;48077;48.104;11.702;2024-01-30T04:28:25;96837.63;;;-4.19;100.00
62103;BME280;48077;48.104;11.702;2024-01-30T04:30:53;96836.81;;;-4.20;100.00
62103;BME280;48077;48.104;11.702;2024-01-30T04:33:21;96837.44;;;-4.16;100.00
62103;BME280;48077;48.104;11.702;2024-01-30T04:35:48;96839.69;;;-4.12;100.00
62103;BME280;48077;48.104;11.702;2024-01-30T04:38:16;96842.31;;;-4.12;100.00
62103;BME280;48077;48.104;11.702;2024-01-30T04:40:45;96840.44;;;-4.10;100.00
62103;BME280;48077;48.104;11.702;2024-01-30T04:43:13;96841.06;;;-4.06;100.00
62103;BME280;48077;48.104;11.702;2024-01-30T04:45:41;96844.38;;;-4.04;100.00
62103;BME280;48077;48.104;11.702;2024-01-30T04:48:09;96847.72;;;-4.02;100.00
62103;BME280;48077;48.104;11.702;2024-01-30T04:50:37;96847.09;;;-4.05;100.00
62103;BME280;48077;48.104;11.702;2024-01-30T04:53:05;96844.91;;;-4.12;100.00
62103;BME280;48077;48.104;11.702;2024-01-30T04:55:32;96838.66;;;-4.09;100.00
62103;BME280;48077;48.104;11.702;2024-01-30T04:58:02;96849.97;;;-3.97;100.00
62103;BME280;48077;48.104;11.702;2024-01-30T05:00:30;96846.03;;;-4.03;100.00
62103;BME280;48077;48.104;11.702;2024-01-30T05:02:57;96843.97;;;-4.11;100.00
62103;BME280;48077;48.104;11.702;2024-01-30T05:05:25;96852.19;;;-4.04;100.00
62103;BME280;48077;48.104;11.702;2024-01-30T05:07:53;96856.06;;;-4.10;100.00
62103;BME280;48077;48.104;11.702;2024-01-30T05:10:21;96848.00;;;-4.07;100.00
62103;BME280;48077;48.104;11.702;2024-01-30T05:12:48;96848.44;;;-4.13;100.00
62103;BME280;48077;48.104;11.702;2024-01-30T05:15:18;96843.56;;;-4.17;100.00
62103;BME280;48077;48.104;11.702;2024-01-30T05:17:46;96848.16;;;-4.21;100.00
62103;BME280;48077;48.104;11.702;2024-01-30T05:20:14;96851.00;;;-4.24;100.00
62103;BME280;48077;48.104;11.702;2024-01-30T05:22:42;96847.56;;;-4.24;100.00
62103;BME280;48077;48.104;11.702;2024-01-30T05:25:12;96851.91;;;-4.25;100.00
62103;BME280;48077;48.104;11.702;2024-01-30T05:27:40;96846.84;;;-4.27;100.00
62103;BME280;48077;48.104;11.702;2024-01-30T05:33:57;96852.16;;;-4.28;100.00
62103;BME280;48077;48.104;11.702;2024-01-30T05:36:25;96851.75;;;-4.35;100.00
62103;BME280;48077;48.104;11.702;2024-01-30T05:38:53;96854.34;;;-4.35;100.00
62103;BME280;48077;48.104;11.702;2024-01-30T05:41:20;96854.13;;;-4.32;100.00
62103;BME280;48077;48.104;11.702;2024-01-30T05:43:48;96861.94;;;-4.32;100.00
62103;BME280;48077;48.104;11.702;2024-01-30T05:46:16;96863.22;;;-4.37;100.00
62103;BME280;48077;48.104;11.702;2024-01-30T05:48:46;96858.94;;;-4.38;100.00
62103;BME280;48077;48.104;11.702;2024-01-30T05:51:15;96860.19;;;-4.44;100.00
62103;BME280;48077;48.104;11.702;2024-01-30T05:53:43;96858.72;;;-4.48;100.00
62103;BME280;48077;48.104;11.702;2024-01-30T05:56:11;96861.88;;;-4.43;100.00
62103;BME280;48077;48.104;11.702;2024-01-30T05:58:39;96869.56;;;-4.41;100.00
62103;BME280;48077;48.104;11.702;2024-01-30T06:01:07;96857.56;;;-4.44;100.00
62103;BME280;48077;48.104;11.702;2024-01-30T06:03:35;96862.59;;;-4.41;100.00
62103;BME280;48077;48.104;11.702;2024-01-30T06:06:03;96867.78;;;-4.41;100.00
62103;BME280;48077;48.104;11.702;2024-01-30T06:08:32;96867.91;;;-4.42;100.00
62103;BME280;48077;48.104;11.702;2024-01-30T06:11:00;96868.84;;;-4.43;100.00
62103;BME280;48077;48.104;11.702;2024-01-30T06:13:28;96874.06;;;-4.43;100.00
62103;BME280;48077;48.104;11.702;2024-01-30T06:15:58;96870.06;;;-4.36;100.00
62103;BME280;48077;48.104;11.702;2024-01-30T06:18:26;96871.44;;;-4.31;100.00
62103;BME280;48077;48.104;11.702;2024-01-30T06:20:55;96876.41;;;-4.28;100.00
62103;BME280;48077;48.104;11.702;2024-01-30T06:23:23;96872.50;;;-4.33;100.00
62103;BME280;48077;48.104;11.702;2024-01-30T06:25:52;96877.28;;;-4.27;100.00
62103;BME280;48077;48.104;11.702;2024-01-30T06:28:20;96878.63;;;-4.34;100.00
62103;BME280;48077;48.104;11.702;2024-01-30T06:30:48;96872.75;;;-4.25;100.00
62103;BME280;48077;48.104;11.702;2024-01-30T06:33:16;96879.75;;;-4.25;100.00
62103;BME280;48077;48.104;11.702;2024-01-30T06:35:44;96878.81;;;-4.24;100.00
62103;BME280;48077;48.104;11.702;2024-01-30T06:38:12;96876.63;;;-4.18;100.00
62103;BME280;48077;48.104;11.702;2024-01-30T06:40:42;96882.25;;;-4.24;100.00
62103;BME280;48077;48.104;11.702;2024-01-30T06:43:11;96876.72;;;-4.19;100.00
62103;BME280;48077;48.104;11.702;2024-01-30T06:45:39;96879.56;;;-4.22;100.00
62103;BME280;48077;48.104;11.702;2024-01-30T06:48:07;96879.31;;;-4.19;100.00
62103;BME280;48077;48.104;11.702;2024-01-30T06:50:35;96885.69;;;-4.23;100.00
62103;BME280;48077;48.104;11.702;2024-01-30T06:53:03;96881.75;;;-4.29;100.00
62103;BME280;48077;48.104;11.702;2024-01-30T06:55:31;96893.94;;;-4.30;100.00
62103;BME280;48077;48.104;11.702;2024-01-30T06:57:58;96888.22;;;-4.35;100.00
62103;BME280;48077;48.104;11.702;2024-01-30T07:00:28;96899.13;;;-4.30;100.00
62103;BME280;48077;48.104;11.702;2024-01-30T07:02:56;96896.09;;;-4.23;100.00
62103;BME280;48077;48.104;11.702;2024-01-30T07:05:23;96898.50;;;-4.20;100.00
62103;BME280;48077;48.104;11.702;2024-01-30T07:07:51;96895.59;;;-4.16;100.00
62103;BME280;48077;48.104;11.702;2024-01-30T07:10:19;96896.41;;;-4.15;100.00
62103;BME280;48077;48.104;11.702;2024-01-30T07:12:47;96897.75;;;-4.10;100.00
62103;BME280;48077;48.104;11.702;2024-01-30T07:15:15;96901.19;;;-4.09;100.00
62103;BME280;48077;48.104;11.702;2024-01-30T07:17:50;96899.31;;;-4.07;100.00
62103;BME280;48077;48.104;11.702;2024-01-30T07:20:18;96904.75;;;-4.10;100.00
62103;BME280;48077;48.104;11.702;2024-01-30T07:22:47;96905.06;;;-4.02;100.00
62103;BME280;48077;48.104;11.702;2024-01-30T07:25:15;96906.69;;;-4.01;100.00
62103;BME280;48077;48.104;11.702;2024-01-30T07:27:43;96910.03;;;-3.99;100.00
62103;BME280;48077;48.104;11.702;2024-01-30T07:30:11;96909.84;;;-3.96;100.00
62103;BME280;48077;48.104;11.702;2024-01-30T07:32:39;96907.94;;;-3.94;100.00
62103;BME280;48077;48.104;11.702;2024-01-30T07:35:08;96910.09;;;-3.88;100.00
62103;BME280;48077;48.104;11.702;2024-01-30T07:37:36;96910.00;;;-3.86;100.00
62103;BME280;48077;48.104;11.702;2024-01-30T07:40:05;96911.25;;;-3.79;100.00
62103;BME280;48077;48.104;11.702;2024-01-30T07:42:33;96911.25;;;-3.79;100.00
62103;BME280;48077;48.104;11.702;2024-01-30T07:45:02;96913.41;;;-3.73;100.00
62103;BME280;48077;48.104;11.702;2024-01-30T07:47:29;96908.34;;;-3.63;100.00
62103;BME280;48077;48.104;11.702;2024-01-30T07:49:57;96908.75;;;-3.56;100.00
62103;BME280;48077;48.104;11.702;2024-01-30T07:52:26;96912.50;;;-3.48;100.00
62103;BME280;48077;48.104;11.702;2024-01-30T07:54:54;96913.69;;;-3.40;100.00
62103;BME280;48077;48.104;11.702;2024-01-30T07:57:23;96909.19;;;-3.38;100.00
62103;BME280;48077;48.104;11.702;2024-01-30T07:59:51;96907.69;;;-3.30;100.00
62103;BME280;48077;48.104;11.702;2024-01-30T08:02:19;96909.13;;;-3.26;100.00
62103;BME280;48077;48.104;11.702;2024-01-30T08:04:47;96914.28;;;-3.13;100.00
62103;BME280;48077;48.104;11.702;2024-01-30T08:07:16;96914.19;;;-3.11;100.00
62103;BME280;48077;48.104;11.702;2024-01-30T08:09:45;96912.78;;;-3.04;100.00
62103;BME280;48077;48.104;11.702;2024-01-30T08:12:13;96905.78;;;-3.03;100.00
62103;BME280;48077;48.104;11.702;2024-01-30T08:14:41;96923.03;;;-2.90;100.00
62103;BME280;48077;48.104;11.702;2024-01-30T08:17:09;96914.72;;;-2.83;100.00
62103;BME280;48077;48.104;11.702;2024-01-30T08:19:36;96919.28;;;-2.74;100.00
62103;BME280;48077;48.104;11.702;2024-01-30T08:22:04;96916.81;;;-2.65;100.00
62103;BME280;48077;48.104;11.702;2024-01-30T08:24:32;96920.38;;;-2.54;100.00
62103;BME280;48077;48.104;11.702;2024-01-30T08:27:01;96913.28;;;-2.41;100.00
62103;BME280;48077;48.104;11.702;2024-01-30T08:29:31;96916.25;;;-2.34;100.00
62103;BME280;48077;48.104;11.702;2024-01-30T08:31:59;96919.00;;;-2.25;100.00
62103;BME280;48077;48.104;11.702;2024-01-30T08:34:27;96912.69;;;-2.11;100.00
62103;BME280;48077;48.104;11.702;2024-01-30T08:36:55;96918.41;;;-2.06;100.00
62103;BME280;48077;48.104;11.702;2024-01-30T08:39:22;96909.00;;;-1.97;100.00
62103;BME280;48077;48.104;11.702;2024-01-30T08:41:50;96906.38;;;-1.86;100.00
62103;BME280;48077;48.104;11.702;2024-01-30T08:44:19;96908.28;;;-1.76;100.00
62103;BME280;48077;48.104;11.702;2024-01-30T08:46:47;96912.66;;;-1.66;100.00
62103;BME280;48077;48.104;11.702;2024-01-30T08:49:16;96910.84;;;-1.54;100.00
62103;BME280;48077;48.104;11.702;2024-01-30T08:51:44;96907.38;;;-1.43;100.00
62103;BME280;48077;48.104;11.702;2024-01-30T08:54:12;96911.63;;;-1.31;100.00
62103;BME280;48077;48.104;11.702;2024-01-30T08:56:40;96917.28;;;-1.14;100.00
62103;BME280;48077;48.104;11.702;2024-01-30T08:59:07;96913.00;;;-0.94;100.00
62103;BME280;48077;48.104;11.702;2024-01-30T09:01:40;96917.81;;;-0.78;100.00
62103;BME280;48077;48.104;11.702;2024-01-30T09:04:20;96923.47;;;-0.62;100.00
62103;BME280;48077;48.104;11.702;2024-01-30T09:06:51;96912.69;;;-0.38;100.00
62103;BME280;48077;48.104;11.702;2024-01-30T09:09:19;96920.34;;;-0.25;100.00
62103;BME280;48077;48.104;11.702;2024-01-30T09:11:47;96920.34;;;-0.04;100.00
62103;BME280;48077;48.104;11.702;2024-01-30T09:14:15;96920.53;;;0.14;100.00
62103;BME280;48077;48.104;11.702;2024-01-30T09:16:44;96922.13;;;0.36;100.00
62103;BME280;48077;48.104;11.702;2024-01-30T09:19:12;96930.19;;;0.64;100.00
62103;BME280;48077;48.104;11.702;2024-01-30T09:21:40;96921.34;;;0.74;100.00
62103;BME280;48077;48.104;11.702;2024-01-30T09:24:07;96930.66;;;0.98;100.00
62103;BME280;48077;48.104;11.702;2024-01-30T09:26:35;96930.91;;;1.24;100.00
62103;BME280;48077;48.104;11.702;2024-01-30T09:29:03;96932.69;;;1.33;100.00
62103;BME280;48077;48.104;11.702;2024-01-30T09:31:31;96924.13;;;1.51;100.00
62103;BME280;48077;48.104;11.702;2024-01-30T09:34:00;96929.31;;;1.80;100.00
62103;BME280;48077;48.104;11.702;2024-01-30T09:36:28;96933.81;;;2.07;100.00
62103;BME280;48077;48.104;11.702;2024-01-30T09:38:56;96937.91;;;2.19;100.00
62103;BME280;48077;48.104;11.702;2024-01-30T09:41:24;96936.84;;;2.40;100.00
62103;BME280;48077;48.104;11.702;2024-01-30T09:43:54;96940.50;;;2.57;100.00
62103;BME280;48077;48.104;11.702;2024-01-30T09:46:28;96932.63;;;2.75;100.00
62103;BME280;48077;48.104;11.702;2024-01-30T09:48:57;96939.44;;;2.95;100.00
62103;BME280;48077;48.104;11.702;2024-01-30T09:51:27;96946.63;;;3.21;100.00
62103;BME280;48077;48.104;11.702;2024-01-30T09:53:56;96933.25;;;3.40;100.00
62103;BME280;48077;48.104;11.702;2024-01-30T09:56:24;96938.81;;;3.55;100.00
62103;BME280;48077;48.104;11.702;2024-01-30T09:58:52;96941.00;;;3.86;100.00
62103;BME280;48077;48.104;11.702;2024-01-30T10:01:20;96935.16;;;4.00;100.00
62103;BME280;48077;48.104;11.702;2024-01-30T10:03:50;96934.94;;;4.20;100.00
62103;BME280;48077;48.104;11.702;2024-01-30T10:06:18;96936.69;;;4.45;100.00
62103;BME280;48077;48.104;11.702;2024-01-30T10:08:50;96918.63;;;4.67;100.00
62103;BME280;48077;48.104;11.702;2024-01-30T10:11:17;96933.72;;;4.99;100.00
62103;BME280;48077;48.104;11.702;2024-01-30T10:13:45;96927.50;;;5.17;91.66
62103;BME280;48077;48.104;11.702;2024-01-30T10:16:13;96923.19;;;5.48;92.68
62103;BME280;48077;48.104;11.702;2024-01-30T10:18:43;96920.34;;;5.75;97.65
62103;BME280;48077;48.104;11.702;2024-01-30T10:21:11;96901.28;;;6.04;78.30
62103;BME280;48077;48.104;11.702;2024-01-30T10:23:39;96913.69;;;6.59;69.99
62103;BME280;48077;48.104;11.702;2024-01-30T10:26:09;96900.50;;;6.82;63.93
62103;BME280;48077;48.104;11.702;2024-01-30T10:28:37;96899.31;;;7.08;60.41
62103;BME280;48077;48.104;11.702;2024-01-30T10:31:04;96905.22;;;7.41;59.38
62103;BME280;48077;48.104;11.702;2024-01-30T10:33:33;96894.31;;;7.74;59.57
62103;BME280;48077;48.104;11.702;2024-01-30T10:36:02;96893.44;;;7.82;57.47
62103;BME280;48077;48.104;11.702;2024-01-30T10:38:32;96899.50;;;8.05;58.87
62103;BME280;48077;48.104;11.702;2024-01-30T10:41:01;96871.72;;;8.08;56.61
62103;BME280;48077;48.104;11.702;2024-01-30T10:43:34;96888.50;;;8.38;53.99
62103;BME280;48077;48.104;11.702;2024-01-30T10:46:08;96883.09;;;8.61;52.70
62103;BME280;48077;48.104;11.702;2024-01-30T10:48:42;96886.53;;;8.77;52.91
62103;BME280;48077;48.104;11.702;2024-01-30T10:51:11;96872.72;;;9.03;51.27
62103;BME280;48077;48.104;11.702;2024-01-30T10:53:41;96866.88;;;9.14;49.60
62103;BME280;48077;48.104;11.702;2024-01-30T10:56:11;96868.03;;;9.26;50.28
62103;BME280;48077;48.104;11.702;2024-01-30T10:58:40;96869.78;;;9.41;47.26
62103;BME280;48077;48.104;11.702;2024-01-30T11:01:09;96868.22;;;9.25;47.23
62103;BME280;48077;48.104;11.702;2024-01-30T11:03:37;96865.75;;;9.23;49.29
62103;BME280;48077;48.104;11.702;2024-01-30T11:06:10;96861.69;;;9.06;51.08
62103;BME280;48077;48.104;11.702;2024-01-30T11:08:38;96860.56;;;8.79;51.01
62103;BME280;48077;48.104;11.702;2024-01-30T11:11:09;96855.19;;;8.72;51.63
62103;BME280;48077;48.104;11.702;2024-01-30T11:13:38;96859.41;;;8.66;51.77
62103;BME280;48077;48.104;11.702;2024-01-30T11:16:11;96853.72;;;8.69;52.88
62103;BME280;48077;48.104;11.702;2024-01-30T11:18:38;96856.97;;;8.65;49.51
62103;BME280;48077;48.104;11.702;2024-01-30T11:21:07;96853.16;;;8.74;49.19
62103;BME280;48077;48.104;11.702;2024-01-30T11:23:34;96844.09;;;8.68;50.56
62103;BME280;48077;48.104;11.702;2024-01-30T11:26:03;96846.16;;;8.88;49.78
62103;BME280;48077;48.104;11.702;2024-01-30T11:28:32;96847.84;;;8.96;50.26
62103;BME280;48077;48.104;11.702;2024-01-30T11:31:05;96841.28;;;9.13;51.70
62103;BME280;48077;48.104;11.702;2024-01-30T11:33:35;96845.41;;;9.16;52.16
62103;BME280;48077;48.104;11.702;2024-01-30T11:36:04;96839.16;;;9.51;53.51
62103;BME280;48077;48.104;11.702;2024-01-30T11:38:34;96832.91;;;9.94;51.45
62103;BME280;48077;48.104;11.702;2024-01-30T11:41:02;96820.75;;;10.26;51.23
62103;BME280;48077;48.104;11.702;2024-01-30T11:43:30;96828.06;;;10.46;49.22
62103;BME280;48077;48.104;11.702;2024-01-30T11:46:00;96826.28;;;10.66;48.93
62103;BME280;48077;48.104;11.702;2024-01-30T11:48:29;96824.50;;;10.87;48.05
62103;BME280;48077;48.104;11.702;2024-01-30T11:50:58;96825.63;;;10.51;48.97
62103;BME280;48077;48.104;11.702;2024-01-30T11:53:26;96826.50;;;10.23;48.05
62103;BME280;48077;48.104;11.702;2024-01-30T11:55:54;96823.56;;;10.53;48.14
62103;BME280;48077;48.104;11.702;2024-01-30T11:58:24;96825.09;;;10.76;48.02
62103;BME280;48077;48.104;11.702;2024-01-30T12:00:53;96815.84;;;10.71;48.21
62103;BME280;48077;48.104;11.702;2024-01-30T12:03:22;96816.16;;;11.30;48.03
62103;BME280;48077;48.104;11.702;2024-01-30T12:05:55;96813.47;;;11.23;45.79
62103;BME280;48077;48.104;11.702;2024-01-30T12:08:25;96811.63;;;11.44;44.70
62103;BME280;48077;48.104;11.702;2024-01-30T12:10:57;96808.53;;;11.27;45.39
62103;BME280;48077;48.104;11.702;2024-01-30T12:13:28;96805.22;;;11.05;45.04
62103;BME280;48077;48.104;11.702;2024-01-30T12:15:59;96799.03;;;10.98;46.06
62103;BME280;48077;48.104;11.702;2024-01-30T12:18:27;96808.22;;;10.62;45.65
62103;BME280;48077;48.104;11.702;2024-01-30T12:20:58;96799.78;;;10.58;44.93
62103;BME280;48077;48.104;11.702;2024-01-30T12:23:28;96801.25;;;10.19;48.56
62103;BME280;48077;48.104;11.702;2024-01-30T12:25:57;96795.84;;;10.06;49.25
62103;BME280;48077;48.104;11.702;2024-01-30T12:28:24;96790.66;;;9.98;48.65
62103;BME280;48077;48.104;11.702;2024-01-30T12:30:56;96793.47;;;9.83;50.36
62103;BME280;48077;48.104;11.702;2024-01-30T12:33:26;96794.25;;;9.77;52.30
62103;BME280;48077;48.104;11.702;2024-01-30T12:35:55;96782.78;;;9.76;51.37
62103;BME280;48077;48.104;11.702;2024-01-30T12:38:30;96789.19;;;9.88;50.52
62103;BME280;48077;48.104;11.702;2024-01-30T12:40:58;96794.47;;;9.75;51.50
62103;BME280;48077;48.104;11.702;2024-01-30T12:43:27;96782.19;;;9.81;50.22
62103;BME280;48077;48.104;11.702;2024-01-30T12:46:04;96781.06;;;10.03;48.62
62103;BME280;48077;48.104;11.702;2024-01-30T12:48:33;96782.69;;;9.98;49.54
62103;BME280;48077;48.104;11.702;2024-01-30T12:51:01;96774.31;;;10.07;47.09
62103;BME280;48077;48.104;11.702;2024-01-30T12:53:30;96773.72;;;10.12;46.08
62103;BME280;48077;48.104;11.702;2024-01-30T12:55:58;96781.50;;;10.07;47.59
62103;BME280;48077;48.104;11.702;2024-01-30T12:58:26;96778.66;;;10.08;48.06
62103;BME280;48077;48.104;11.702;2024-01-30T13:00:54;96770.88;;;10.13;47.21